createdAt,value
2019-03-22T00:02:09.123Z,33.90
2019-03-22T00:04:37.113Z,33.50
2019-03-22T00:07:05.347Z,35.43
2019-03-22T00:09:33.379Z,30.27
2019-03-22T00:12:04.113Z,31.60
2019-03-22T00:14:31.247Z,35.73
2019-03-22T00:16:59.628Z,31.53
2019-03-22T00:19:27.854Z,37.67
2019-03-22T00:21:56.048Z,36.90
2019-03-22T00:24:24.111Z,31.87
2019-03-22T00:26:52.301Z,35.63
2019-03-22T00:29:20.176Z,37.97
2019-03-22T00:31:48.409Z,36.43
2019-03-22T00:34:16.429Z,33.17
2019-03-22T00:36:44.664Z,35.80
2019-03-22T00:39:12.982Z,35.03
2019-03-22T00:41:41.127Z,34.30
2019-03-22T00:44:09.225Z,39.13
2019-03-22T00:46:37.489Z,35.70
2019-03-22T00:49:05.496Z,40.65
2019-03-22T00:51:33.802Z,33.80
2019-03-22T00:54:01.803Z,34.53
2019-03-22T00:56:30.156Z,30.63
2019-03-22T00:59:03.126Z,34.67
2019-03-22T01:01:31.408Z,31.87
2019-03-22T01:03:59.821Z,36.57
2019-03-22T01:06:27.886Z,35.87
2019-03-22T01:08:55.896Z,33.43
2019-03-22T01:11:23.936Z,34.97
2019-03-22T01:13:52.541Z,35.43
2019-03-22T01:16:21.930Z,35.90
2019-03-22T01:18:50.581Z,35.53
2019-03-22T01:21:18.824Z,38.77
2019-03-22T01:23:46.758Z,37.10
2019-03-22T01:26:16.998Z,35.07
2019-03-22T01:28:45.207Z,39.17
2019-03-22T01:31:13.130Z,38.53
2019-03-22T01:33:41.308Z,33.57
2019-03-22T01:36:09.761Z,34.17
2019-03-22T01:38:38.588Z,33.07
2019-03-22T01:41:06.664Z,38.50
2019-03-22T01:43:34.747Z,36.43
2019-03-22T01:46:02.545Z,37.83
2019-03-22T01:48:30.509Z,39.10
2019-03-22T01:50:58.638Z,33.93
2019-03-22T01:53:26.866Z,32.37
2019-03-22T01:55:55.021Z,36.30
2019-03-22T01:58:23.158Z,30.90
2019-03-22T02:00:51.326Z,34.17
2019-03-22T02:03:19.438Z,35.07
2019-03-22T02:05:47.498Z,35.43
2019-03-22T02:08:18.513Z,32.53
2019-03-22T02:10:46.903Z,33.17
2019-03-22T02:13:15.099Z,35.60
2019-03-22T02:15:45.475Z,35.63
2019-03-22T02:18:16.422Z,37.60
2019-03-22T02:20:44.807Z,37.17
2019-03-22T02:23:12.725Z,33.67
2019-03-22T02:25:53.209Z,36.33
2019-03-22T02:28:21.207Z,33.60
2019-03-22T02:30:49.530Z,37.90
2019-03-22T02:33:17.888Z,37.70
2019-03-22T02:35:46.119Z,42.93
2019-03-22T02:38:17.005Z,34.90
2019-03-22T02:40:45.108Z,37.90
2019-03-22T02:43:13.425Z,35.30
2019-03-22T02:45:41.659Z,38.27
2019-03-22T02:48:10.618Z,34.43
2019-03-22T02:50:39.263Z,34.97
2019-03-22T02:53:07.416Z,34.10
2019-03-22T02:55:35.575Z,36.00
2019-03-22T02:58:19.334Z,36.80
2019-03-22T03:00:34.113Z,31.47
2019-03-22T03:03:02.583Z,31.47
2019-03-22T03:05:30.630Z,32.00
2019-03-22T03:07:58.520Z,33.23
2019-03-22T03:10:26.558Z,39.23
2019-03-22T03:12:54.618Z,31.87
2019-03-22T03:15:22.687Z,31.77
2019-03-22T03:17:50.744Z,35.40
2019-03-22T03:20:19.285Z,37.27
2019-03-22T03:22:47.456Z,35.57
2019-03-22T03:25:16.526Z,36.85
2019-03-22T03:27:45.107Z,39.43
2019-03-22T03:30:15.408Z,43.55
2019-03-22T03:32:46.231Z,38.20
2019-03-22T03:35:15.201Z,35.87
2019-03-22T03:37:43.846Z,37.40
2019-03-22T03:40:12.391Z,36.53
2019-03-22T03:42:40.514Z,33.30
2019-03-22T03:45:35.900Z,35.37
2019-03-22T03:48:06.574Z,34.17
2019-03-22T03:50:34.537Z,36.60
2019-03-22T03:53:08.145Z,37.73
2019-03-22T03:55:36.525Z,33.60
2019-03-22T03:58:04.799Z,38.07
2019-03-22T04:00:33.115Z,34.50
2019-03-22T04:03:01.034Z,34.67
2019-03-22T04:05:29.109Z,39.07
2019-03-22T04:07:57.306Z,39.17
2019-03-22T04:10:25.365Z,38.53
2019-03-22T04:12:53.425Z,37.30
2019-03-22T04:15:21.807Z,40.70
2019-03-22T04:17:50.127Z,39.30
2019-03-22T04:20:18.386Z,44.80
2019-03-22T04:22:46.526Z,39.03
2019-03-22T04:25:14.426Z,42.57
2019-03-22T04:27:42.890Z,41.60
2019-03-22T04:30:10.879Z,43.30
2019-03-22T04:32:41.279Z,40.20
2019-03-22T04:35:09.432Z,36.97
2019-03-22T04:37:38.421Z,39.53
2019-03-22T04:40:18.351Z,41.30
2019-03-22T04:42:46.378Z,39.63
2019-03-22T04:45:14.438Z,40.90
2019-03-22T04:47:46.123Z,35.83
2019-03-22T04:50:16.821Z,40.50
2019-03-22T04:52:45.799Z,34.97
2019-03-22T04:55:16.032Z,40.40
2019-03-22T04:57:47.403Z,33.00
2019-03-22T05:00:18.770Z,32.63
2019-03-22T05:02:47.484Z,37.30
2019-03-22T05:05:16.975Z,40.70
2019-03-22T05:07:45.041Z,40.47
2019-03-22T05:10:15.814Z,40.13
2019-03-22T05:12:45.663Z,42.40
2019-03-22T05:15:16.846Z,44.17
2019-03-22T05:17:45.430Z,42.43
2019-03-22T05:20:16.480Z,37.67
2019-03-22T05:22:45.958Z,39.73
2019-03-22T05:25:14.747Z,37.30
2019-03-22T05:27:44.104Z,40.90
2019-03-22T05:30:43.339Z,37.70
2019-03-22T05:33:11.160Z,42.97
2019-03-22T05:35:39.282Z,40.37
2019-03-22T05:38:07.736Z,42.43
2019-03-22T05:40:37.322Z,40.20
2019-03-22T05:43:05.385Z,40.93
2019-03-22T05:45:33.394Z,44.70
2019-03-22T05:48:01.783Z,43.67
2019-03-22T05:50:29.765Z,41.77
2019-03-22T05:52:57.784Z,40.50
2019-03-22T05:55:25.829Z,41.27
2019-03-22T05:57:54.021Z,44.20
2019-03-22T06:00:22.050Z,40.47
2019-03-22T06:02:50.067Z,43.37
2019-03-22T06:05:18.162Z,35.07
2019-03-22T06:07:46.163Z,41.63
2019-03-22T06:10:14.161Z,43.00
2019-03-22T06:12:44.446Z,53.73
2019-03-22T06:15:12.610Z,46.05
2019-03-22T06:17:51.200Z,42.37
2019-03-22T06:20:10.851Z,41.47
2019-03-22T06:22:38.998Z,39.57
2019-03-22T06:25:07.003Z,41.17
2019-03-22T06:27:34.990Z,39.83
2019-03-22T06:30:03.826Z,43.33
2019-03-22T06:32:31.899Z,38.90
2019-03-22T06:34:59.968Z,40.13
2019-03-22T06:37:28.008Z,40.40
2019-03-22T06:39:56.090Z,37.13
2019-03-22T06:42:24.243Z,34.23
2019-03-22T06:44:52.621Z,38.30
2019-03-22T06:47:20.685Z,36.10
2019-03-22T06:49:48.697Z,36.63
2019-03-22T06:52:17.514Z,34.80
2019-03-22T06:54:45.449Z,35.90
2019-03-22T06:57:13.431Z,41.17
2019-03-22T06:59:44.995Z,40.00
2019-03-22T07:02:12.950Z,43.00
2019-03-22T07:04:44.535Z,41.20
2019-03-22T07:07:12.470Z,40.00
2019-03-22T07:09:42.564Z,50.35
2019-03-22T07:12:10.458Z,50.63
2019-03-22T07:14:38.954Z,57.00
2019-03-22T07:17:06.887Z,51.03
2019-03-22T07:19:34.937Z,46.77
2019-03-22T07:22:02.953Z,46.10
2019-03-22T07:24:30.937Z,46.90
2019-03-22T07:26:59.159Z,45.47
2019-03-22T07:29:27.175Z,41.03
2019-03-22T07:31:56.509Z,46.27
2019-03-22T07:34:24.516Z,45.53
2019-03-22T07:36:52.523Z,42.00
2019-03-22T07:39:20.493Z,40.87
2019-03-22T07:41:48.469Z,45.07
2019-03-22T07:44:16.821Z,41.53
2019-03-22T07:46:44.747Z,44.40
2019-03-22T07:49:12.884Z,41.77
2019-03-22T07:51:41.693Z,40.40
2019-03-22T07:54:11.740Z,41.67
2019-03-22T07:56:39.959Z,40.67
2019-03-22T07:59:09.851Z,40.67
2019-03-22T08:01:38.740Z,39.20
2019-03-22T08:04:06.927Z,40.83
2019-03-22T08:06:34.888Z,42.93
2019-03-22T08:09:06.570Z,40.40
2019-03-22T08:11:34.667Z,48.90
2019-03-22T08:14:02.640Z,43.20
2019-03-22T08:16:30.737Z,39.60
2019-03-22T08:18:59.986Z,39.07
2019-03-22T08:21:28.078Z,38.60
2019-03-22T08:23:56.180Z,40.13
2019-03-22T08:26:24.320Z,39.63
2019-03-22T08:28:52.753Z,38.43
2019-03-22T08:31:20.739Z,35.67
2019-03-22T08:33:48.845Z,37.70
2019-03-22T08:36:18.007Z,35.37
2019-03-22T08:38:45.911Z,33.10
2019-03-22T08:41:14.057Z,33.60
2019-03-22T08:43:42.919Z,34.57
2019-03-22T08:46:11.041Z,31.53
2019-03-22T08:48:39.368Z,33.90
2019-03-22T08:51:07.899Z,30.60
2019-03-22T08:53:38.004Z,34.83
2019-03-22T08:56:06.117Z,33.00
2019-03-22T08:58:34.144Z,34.18
2019-03-22T09:01:02.245Z,33.53
2019-03-22T09:03:30.324Z,37.80
2019-03-22T09:06:17.950Z,35.63
2019-03-22T09:08:47.908Z,34.00
2019-03-22T09:11:18.147Z,36.73
2019-03-22T09:13:46.863Z,35.97
2019-03-22T09:16:14.979Z,37.03
2019-03-22T09:18:46.088Z,33.67
2019-03-22T09:21:14.420Z,36.87
2019-03-22T09:23:44.839Z,35.80
2019-03-22T09:26:12.794Z,34.67
2019-03-22T09:28:43.796Z,39.13
2019-03-22T09:31:12.372Z,36.73
2019-03-22T09:33:43.973Z,39.80
2019-03-22T09:36:12.485Z,38.33
2019-03-22T09:38:41.805Z,40.70
2019-03-22T09:41:09.856Z,39.00
2019-03-22T09:43:40.831Z,39.40
2019-03-22T09:46:08.952Z,45.12
2019-03-22T09:48:39.564Z,43.77
2019-03-22T09:51:07.696Z,47.15
2019-03-22T09:53:35.818Z,41.27
2019-03-22T09:56:06.767Z,41.73
2019-03-22T09:58:34.738Z,40.90
2019-03-22T10:01:02.946Z,43.83
2019-03-22T10:03:32.134Z,40.17
2019-03-22T10:06:00.245Z,43.13
2019-03-22T10:08:28.505Z,40.47
2019-03-22T10:10:56.501Z,42.23
2019-03-22T10:13:24.671Z,41.50
2019-03-22T10:15:52.872Z,41.63
2019-03-22T10:18:20.941Z,42.50
2019-03-22T10:20:49.166Z,41.70
2019-03-22T10:23:17.096Z,43.97
2019-03-22T10:25:45.126Z,42.80
2019-03-22T10:28:13.099Z,50.25
2019-03-22T10:30:44.631Z,45.48
2019-03-22T10:33:22.059Z,43.63
2019-03-22T10:35:43.194Z,43.23
2019-03-22T10:38:16.380Z,43.73
2019-03-22T10:40:41.878Z,46.03
2019-03-22T10:43:09.900Z,48.10
2019-03-22T10:45:40.830Z,46.00
2019-03-22T10:48:08.935Z,42.60
2019-03-22T10:50:37.357Z,45.97
2019-03-22T10:53:05.634Z,43.83
2019-03-22T10:55:35.528Z,46.13
2019-03-22T10:58:03.609Z,46.50
2019-03-22T11:00:31.690Z,44.13
2019-03-22T11:02:59.709Z,45.47
2019-03-22T11:05:27.782Z,49.13
2019-03-22T11:07:55.777Z,48.07
2019-03-22T11:10:23.818Z,52.95
2019-03-22T11:12:51.871Z,44.73
2019-03-22T11:15:19.957Z,45.60
2019-03-22T11:17:48.025Z,44.67
2019-03-22T11:20:17.323Z,46.70
2019-03-22T11:22:45.363Z,45.87
2019-03-22T11:25:13.518Z,47.20
2019-03-22T11:27:44.117Z,44.30
2019-03-22T11:30:14.555Z,45.17
2019-03-22T11:32:45.695Z,43.80
2019-03-22T11:35:14.882Z,45.70
2019-03-22T11:37:43.048Z,45.83
2019-03-22T11:40:12.994Z,42.63
2019-03-22T11:42:41.735Z,50.60
2019-03-22T11:45:13.236Z,46.68
2019-03-22T11:47:43.886Z,46.13
2019-03-22T11:50:11.954Z,44.20
2019-03-22T11:52:39.934Z,46.83
2019-03-22T11:55:10.987Z,44.40
2019-03-22T11:57:39.123Z,42.20
2019-03-22T12:00:11.292Z,43.13
2019-03-22T12:02:39.294Z,43.67
2019-03-22T12:05:09.030Z,44.17
2019-03-22T12:07:38.803Z,46.50
2019-03-22T12:10:08.147Z,44.73
2019-03-22T12:12:36.586Z,42.60
2019-03-22T12:15:05.425Z,40.30
2019-03-22T12:17:33.468Z,50.33
2019-03-22T12:20:01.468Z,42.70
2019-03-22T12:22:29.474Z,39.67
2019-03-22T12:24:57.503Z,38.80
2019-03-22T12:27:25.589Z,38.73
2019-03-22T12:29:53.677Z,39.70
2019-03-22T12:32:21.830Z,38.77
2019-03-22T12:34:50.766Z,40.27
2019-03-22T12:37:18.927Z,41.73
2019-03-22T12:39:46.911Z,36.20
2019-03-22T12:42:14.930Z,36.20
2019-03-22T12:44:46.058Z,37.80
2019-03-22T12:47:15.137Z,34.80
2019-03-22T12:49:42.986Z,35.80
2019-03-22T12:52:11.025Z,34.93
2019-03-22T12:54:39.130Z,39.73
2019-03-22T12:57:07.118Z,36.20
2019-03-22T12:59:40.900Z,37.10
2019-03-22T13:02:08.984Z,37.07
2019-03-22T13:04:38.811Z,35.47
2019-03-22T13:07:06.881Z,32.50
2019-03-22T13:09:34.889Z,32.77
2019-03-22T13:12:02.877Z,34.17
2019-03-22T13:14:30.981Z,32.47
2019-03-22T13:16:59.987Z,32.80
2019-03-22T13:19:28.005Z,36.40
2019-03-22T13:21:55.922Z,33.40
2019-03-22T13:24:23.862Z,35.67
2019-03-22T13:26:51.946Z,32.45
2019-03-22T13:29:19.955Z,36.57
2019-03-22T13:31:48.098Z,33.40
2019-03-22T13:34:16.056Z,34.20
2019-03-22T13:36:44.078Z,33.43
2019-03-22T13:39:12.156Z,34.83
2019-03-22T13:41:42.993Z,35.07
2019-03-22T13:44:10.978Z,32.10
2019-03-22T13:46:40.442Z,31.77
2019-03-22T13:49:08.750Z,34.70
2019-03-22T13:51:37.338Z,33.60
2019-03-22T13:54:05.310Z,33.17
2019-03-22T13:56:33.438Z,38.10
2019-03-22T13:59:01.525Z,33.20
2019-03-22T14:01:29.618Z,33.47
2019-03-22T14:03:57.725Z,32.63
2019-03-22T14:06:25.615Z,31.27
2019-03-22T14:08:53.642Z,33.60
2019-03-22T14:11:21.550Z,33.20
2019-03-22T14:13:49.662Z,30.23
2019-03-22T14:16:20.885Z,30.40
2019-03-22T14:18:48.958Z,31.00
2019-03-22T14:21:16.806Z,30.20
2019-03-22T14:23:44.807Z,27.93
2019-03-22T14:26:12.724Z,29.27
2019-03-22T14:28:41.186Z,28.23
2019-03-22T14:31:09.201Z,26.70
2019-03-22T14:33:37.530Z,28.37
2019-03-22T14:36:05.538Z,28.93
2019-03-22T14:38:33.532Z,23.87
2019-03-22T14:41:01.619Z,25.43
2019-03-22T14:43:29.581Z,25.23
2019-03-22T14:45:57.771Z,25.97
2019-03-22T14:48:25.806Z,25.03
2019-03-22T14:50:54.015Z,24.60
2019-03-22T14:53:22.077Z,26.07
2019-03-22T14:55:50.139Z,25.20
2019-03-22T14:58:20.964Z,27.87
2019-03-22T15:00:49.753Z,26.57
2019-03-22T15:03:24.258Z,25.80
2019-03-22T15:05:53.736Z,25.17
2019-03-22T15:08:22.406Z,24.87
2019-03-22T15:10:50.609Z,26.37
2019-03-22T15:13:19.907Z,26.97
2019-03-22T15:16:13.207Z,26.70
2019-03-22T15:18:56.017Z,25.80
2019-03-22T15:21:42.252Z,25.93
2019-03-22T15:24:35.518Z,24.50
2019-03-22T15:27:24.134Z,25.60
2019-03-22T15:30:04.048Z,25.13
2019-03-22T15:32:51.624Z,24.63
2019-03-22T15:35:36.712Z,25.33
2019-03-22T15:38:23.057Z,25.83
2019-03-22T15:40:51.160Z,26.70
2019-03-22T15:43:19.188Z,28.17
2019-03-22T15:45:47.212Z,24.33
2019-03-22T15:48:15.162Z,25.70
2019-03-22T15:50:42.982Z,27.13
2019-03-22T15:53:10.908Z,26.90
2019-03-22T15:55:38.990Z,26.07
2019-03-22T15:58:06.921Z,29.15
2019-03-22T16:00:34.989Z,29.30
2019-03-22T16:03:02.951Z,28.53
2019-03-22T16:05:30.918Z,28.70
2019-03-22T16:07:59.053Z,27.60
2019-03-22T16:10:26.943Z,30.50
2019-03-22T16:12:57.582Z,25.70
2019-03-22T16:15:25.424Z,28.33
2019-03-22T16:17:53.516Z,27.47
2019-03-22T16:20:21.514Z,28.63
2019-03-22T16:22:49.627Z,26.90
2019-03-22T16:25:17.570Z,27.30
2019-03-22T16:27:45.862Z,26.17
2019-03-22T16:30:14.074Z,29.27
2019-03-22T16:32:43.921Z,29.27
2019-03-22T16:35:12.235Z,27.43
2019-03-22T16:37:40.284Z,28.77
2019-03-22T16:40:10.829Z,28.13
2019-03-22T16:42:39.947Z,27.97
2019-03-22T16:45:08.668Z,27.53
2019-03-22T16:47:37.679Z,28.77
2019-03-22T16:50:21.094Z,28.40
2019-03-22T16:52:49.434Z,26.13
2019-03-22T16:55:17.351Z,27.17
2019-03-22T16:57:45.362Z,28.57
2019-03-22T17:00:13.759Z,29.07
2019-03-22T17:02:44.411Z,26.57
2019-03-22T17:05:12.722Z,26.63
2019-03-22T17:07:41.346Z,26.13
2019-03-22T17:10:09.374Z,27.57
2019-03-22T17:12:39.873Z,27.07
2019-03-22T17:15:08.535Z,25.00
2019-03-22T17:17:56.452Z,24.20
2019-03-22T17:20:24.520Z,23.80
2019-03-22T17:22:52.565Z,24.50
2019-03-22T17:25:20.430Z,26.57
2019-03-22T17:27:49.819Z,29.80
2019-03-22T17:30:18.749Z,26.35
2019-03-22T17:32:46.736Z,26.03
2019-03-22T17:35:15.122Z,25.53
2019-03-22T17:37:43.213Z,28.30
2019-03-22T17:40:11.507Z,29.73
2019-03-22T17:42:39.454Z,27.87
2019-03-22T17:45:08.134Z,25.53
2019-03-22T17:47:36.718Z,23.13
2019-03-22T17:50:05.477Z,25.97
2019-03-22T17:52:33.344Z,27.33
2019-03-22T17:55:01.424Z,27.67
2019-03-22T17:57:29.650Z,28.90
2019-03-22T17:59:58.789Z,27.63
2019-03-22T18:02:26.787Z,28.50
2019-03-22T18:04:54.762Z,26.27
2019-03-22T18:07:22.687Z,28.73
2019-03-22T18:09:50.682Z,25.90
2019-03-22T18:12:21.866Z,29.70
2019-03-22T18:14:49.842Z,25.27
2019-03-22T18:17:17.762Z,25.10
2019-03-22T18:19:45.607Z,27.77
2019-03-22T18:22:13.557Z,28.40
2019-03-22T18:24:43.983Z,28.00
2019-03-22T18:27:12.010Z,29.33
2019-03-22T18:29:40.737Z,31.70
2019-03-22T18:32:08.833Z,29.07
2019-03-22T18:34:38.575Z,29.00
2019-03-22T18:37:06.832Z,27.53
2019-03-22T18:39:34.746Z,26.27
2019-03-22T18:42:02.612Z,33.03
2019-03-22T18:44:30.476Z,28.27
2019-03-22T18:46:58.478Z,29.10
2019-03-22T18:49:26.458Z,26.00
2019-03-22T18:51:54.462Z,27.73
2019-03-22T18:54:22.335Z,28.60
2019-03-22T18:56:50.367Z,27.53
2019-03-22T18:59:18.317Z,26.30
2019-03-22T19:01:46.595Z,27.70
2019-03-22T19:04:15.065Z,33.83
2019-03-22T19:06:43.118Z,31.77
2019-03-22T19:09:11.089Z,27.57
2019-03-22T19:11:39.127Z,31.77
2019-03-22T19:14:07.084Z,31.07
2019-03-22T19:16:35.104Z,28.70
2019-03-22T19:19:03.206Z,31.83
2019-03-22T19:21:31.417Z,30.17
2019-03-22T19:23:59.498Z,31.63
2019-03-22T19:26:27.766Z,29.03
2019-03-22T19:28:55.843Z,30.97
2019-03-22T19:31:23.673Z,26.73
2019-03-22T19:33:51.707Z,29.20
2019-03-22T19:36:22.241Z,34.92
2019-03-22T19:38:50.215Z,34.13
2019-03-22T19:41:19.243Z,32.47
2019-03-22T19:43:47.331Z,30.13
2019-03-22T19:46:15.320Z,31.07
2019-03-22T19:48:43.420Z,28.47
2019-03-22T19:51:11.386Z,28.17
2019-03-22T19:53:39.355Z,28.40
2019-03-22T19:56:07.674Z,29.57
2019-03-22T19:58:35.701Z,32.40
2019-03-22T20:01:03.874Z,30.03
2019-03-22T20:03:31.946Z,31.57
2019-03-22T20:05:59.981Z,34.73
2019-03-22T20:08:28.011Z,32.40
2019-03-22T20:10:55.838Z,35.15
2019-03-22T20:13:23.742Z,34.83
2019-03-22T20:15:51.698Z,40.58
2019-03-22T20:18:21.058Z,34.67
2019-03-22T20:20:48.943Z,34.30
2019-03-22T20:23:16.945Z,34.77
2019-03-22T20:25:45.022Z,30.47
2019-03-22T20:28:13.031Z,33.17
2019-03-22T20:30:41.320Z,29.67
2019-03-22T20:33:09.392Z,29.30
2019-03-22T20:35:37.483Z,35.00
2019-03-22T20:38:05.669Z,35.30
2019-03-22T20:40:33.602Z,32.93
2019-03-22T20:43:02.825Z,33.40
2019-03-22T20:45:30.839Z,36.87
2019-03-22T20:47:58.855Z,33.50
2019-03-22T20:50:35.428Z,36.17
2019-03-22T20:52:57.189Z,39.67
2019-03-22T20:55:25.172Z,34.50
2019-03-22T20:57:53.006Z,30.60
2019-03-22T21:00:21.318Z,36.67
2019-03-22T21:02:49.200Z,34.53
2019-03-22T21:05:26.411Z,30.87
2019-03-22T21:07:47.120Z,35.80
2019-03-22T21:10:15.039Z,31.20
2019-03-22T21:12:43.102Z,33.97
2019-03-22T21:15:11.242Z,31.87
2019-03-22T21:17:39.137Z,34.57
2019-03-22T21:20:08.765Z,33.00
2019-03-22T21:22:37.086Z,35.23
2019-03-22T21:25:05.337Z,37.13
2019-03-22T21:27:33.349Z,34.67
2019-03-22T21:30:05.598Z,36.93
2019-03-22T21:32:40.889Z,37.93
2019-03-22T21:35:03.914Z,40.73
2019-03-22T21:37:31.952Z,36.17
2019-03-22T21:39:59.981Z,38.50
2019-03-22T21:42:30.129Z,32.77
2019-03-22T21:44:58.022Z,33.57
2019-03-22T21:47:26.111Z,36.37
2019-03-22T21:49:54.169Z,37.90
2019-03-22T21:52:22.843Z,35.40
2019-03-22T21:54:50.683Z,33.63
2019-03-22T21:57:18.713Z,33.00
2019-03-22T21:59:46.633Z,39.80
2019-03-22T22:02:14.658Z,38.47
2019-03-22T22:04:43.126Z,40.63
2019-03-22T22:07:11.215Z,41.50
2019-03-22T22:09:39.407Z,37.20
2019-03-22T22:12:07.557Z,44.50
2019-03-22T22:14:40.903Z,36.57
2019-03-22T22:17:05.658Z,37.13
2019-03-22T22:19:33.825Z,35.20
2019-03-22T22:22:01.798Z,41.77
2019-03-22T22:24:29.701Z,38.20
2019-03-22T22:26:57.975Z,39.00
2019-03-22T22:29:26.031Z,37.67
2019-03-22T22:31:55.174Z,39.13
2019-03-22T22:34:25.982Z,32.50
2019-03-22T22:36:53.979Z,38.00
2019-03-22T22:39:21.978Z,39.57
2019-03-22T22:41:50.131Z,34.50
2019-03-22T22:44:18.190Z,37.37
2019-03-22T22:46:46.163Z,37.37
2019-03-22T22:49:14.093Z,32.30
2019-03-22T22:51:44.751Z,36.77
2019-03-22T22:54:12.803Z,40.03
2019-03-22T22:56:43.309Z,41.10
2019-03-22T22:59:11.260Z,36.60
2019-03-22T23:01:39.414Z,34.67
2019-03-22T23:04:07.338Z,34.10
2019-03-22T23:06:35.237Z,37.13
2019-03-22T23:09:04.687Z,39.57
2019-03-22T23:11:34.631Z,31.63
2019-03-22T23:14:02.544Z,32.73
2019-03-22T23:16:30.566Z,30.10
2019-03-22T23:18:58.539Z,34.93
2019-03-22T23:21:26.438Z,35.20
2019-03-22T23:23:54.222Z,34.87
2019-03-22T23:26:22.909Z,41.70
2019-03-22T23:28:52.127Z,39.43
2019-03-22T23:31:20.211Z,40.73
2019-03-22T23:33:48.334Z,42.47
2019-03-22T23:36:20.400Z,47.38
2019-03-22T23:38:46.305Z,44.30
2019-03-22T23:41:14.403Z,41.57
2019-03-22T23:43:43.142Z,44.60
2019-03-22T23:46:11.413Z,42.97
2019-03-22T23:48:40.905Z,44.60
2019-03-22T23:51:08.771Z,45.27
2019-03-22T23:53:40.990Z,42.70
2019-03-22T23:56:09.047Z,44.07
2019-03-22T23:58:38.226Z,44.87
